Time;durP1;ratioP1;P1;durP2;ratioP2;P2;SDS_P1;SDS_P2;PMS_P1;PMS_P2;Temp;Humidity;BMP_temperature;BMP_pressure;BME280_temperature;BME280_humidity;BME280_pressure;Samples;Min_cycle;Max_cycle;Signal;HPM_P1;HPM_P2
2022/03/22 00:00:27;;;;;;;15.65;10.65;;;;;;;;;;5020054;28;20088;-79
2022/03/22 00:02:53;;;;;;;18.88;10.52;;;;;;;;;;5028311;28;20037;-80
2022/03/22 00:05:19;;;;;;;16.40;10.68;;;;;;;;;;5022443;28;20043;-79
2022/03/22 00:07:44;;;;;;;16.48;10.52;;;;;;;;;;5029476;28;20049;-79
2022/03/22 00:10:10;;;;;;;19.02;11.02;;;;;;;;;;5025123;28;20042;-78
2022/03/22 00:12:35;;;;;;;17.23;10.50;;;;;;;;;;5028310;28;20128;-79
2022/03/22 00:15:01;;;;;;;19.23;11.05;;;;;;;;;;5029302;28;20061;-80
2022/03/22 00:17:27;;;;;;;17.17;10.18;;;;;;;;;;5022808;28;20048;-79
2022/03/22 00:19:52;;;;;;;15.43;10.48;;;;;;;;;;5010558;28;20119;-79
2022/03/22 00:22:18;;;;;;;19.67;10.63;;;;;;;;;;5028793;28;20041;-79
2022/03/22 00:24:43;;;;;;;18.17;10.45;;;;;;;;;;5030685;28;20049;-79
2022/03/22 00:27:09;;;;;;;16.95;9.73;;;;;;;;;;5021758;28;20045;-79
2022/03/22 00:29:34;;;;;;;16.83;10.45;;;;;;;;;;5041539;28;20052;-78
2022/03/22 00:32:00;;;;;;;20.63;11.13;;;;;;;;;;5029098;28;20036;-79
2022/03/22 00:34:25;;;;;;;17.88;10.98;;;;;;;;;;5024597;28;20061;-81
2022/03/22 00:36:50;;;;;;;14.82;9.95;;;;;;;;;;5021476;28;20041;-79
2022/03/22 00:39:16;;;;;;;17.35;10.85;;;;;;;;;;5028103;28;20024;-79
2022/03/22 00:41:42;;;;;;;15.70;10.00;;;;;;;;;;5018300;28;20511;-79
2022/03/22 00:44:08;;;;;;;17.73;11.07;;;;;;;;;;5023220;28;20033;-79
2022/03/22 00:46:34;;;;;;;19.00;11.07;;;;;;;;;;5042266;28;20033;-79
2022/03/22 00:49:02;;;;;;;19.92;10.63;;;;;;;;;;5040203;28;20041;-78
2022/03/22 00:51:27;;;;;;;;;;;;;;;;;;5040942;28;20052;-79
2022/03/22 00:53:53;;;;;;;16.70;10.52;;;;;;;;;;5030949;28;20377;-79
2022/03/22 00:56:18;;;;;;;17.42;11.00;;;;;;;;;;5042707;28;20033;-79
2022/03/22 00:58:43;;;;;;;17.20;10.98;;;;;;;;;;5030302;28;20037;-79
2022/03/22 01:01:09;;;;;;;18.05;10.95;;;;;;;;;;5038547;28;20045;-79
2022/03/22 01:03:34;;;;;;;20.30;10.07;;;;;;;;;;5022943;28;20082;-79
2022/03/22 01:06:01;;;;;;;17.23;11.25;;;;;;;;;;5026273;28;20028;-79
2022/03/22 01:08:29;;;;;;;19.60;10.70;;;;;;;;;;5027082;28;20045;-79
2022/03/22 01:10:54;;;;;;;18.35;10.77;;;;;;;;;;5032469;28;20041;-79
2022/03/22 01:13:21;;;;;;;18.67;11.43;;;;;;;;;;5030842;28;20223;-79
2022/03/22 01:15:47;;;;;;;18.52;11.65;;;;;;;;;;5048415;28;20043;-79
2022/03/22 01:18:13;;;;;;;16.90;10.10;;;;;;;;;;5028648;28;20755;-79
2022/03/22 01:20:41;;;;;;;17.73;11.13;;;;;;;;;;5027822;28;20087;-79
2022/03/22 01:23:07;;;;;;;17.67;11.23;;;;;;;;;;5040051;28;20036;-78
2022/03/22 01:25:36;;;;;;;17.83;11.13;;;;;;;;;;5038786;28;20096;-78
2022/03/22 01:28:04;;;;;;;20.75;11.80;;;;;;;;;;5024760;28;20037;-79
2022/03/22 01:30:29;;;;;;;16.45;10.38;;;;;;;;;;5028174;28;20140;-78
2022/03/22 01:32:55;;;;;;;22.35;11.23;;;;;;;;;;5023269;28;20528;-78
2022/03/22 01:35:23;;;;;;;16.13;10.75;;;;;;;;;;5018783;28;20033;-79
2022/03/22 01:37:49;;;;;;;16.83;11.80;;;;;;;;;;5038547;28;20586;-79
2022/03/22 01:40:16;;;;;;;16.30;10.73;;;;;;;;;;5019662;28;20404;-79
2022/03/22 01:42:42;;;;;;;19.30;11.88;;;;;;;;;;5042169;28;20038;-79
2022/03/22 01:45:09;;;;;;;16.60;11.20;;;;;;;;;;5028085;28;20160;-80
2022/03/22 01:47:39;;;;;;;18.70;11.73;;;;;;;;;;5027506;28;20064;-78
2022/03/22 01:50:07;;;;;;;17.67;10.63;;;;;;;;;;5027490;28;20037;-78
2022/03/22 01:52:34;;;;;;;19.75;11.15;;;;;;;;;;5034561;28;20036;-79
2022/03/22 01:55:00;;;;;;;17.92;11.25;;;;;;;;;;5045046;28;20037;-79
2022/03/22 01:57:26;;;;;;;17.17;10.88;;;;;;;;;;5029595;28;20044;-79
2022/03/22 01:59:51;;;;;;;18.55;11.00;;;;;;;;;;5031924;28;20543;-79
2022/03/22 02:07:47;;;;;;;17.15;11.50;;;;;;;;;;5044354;28;20519;-77
2022/03/22 02:10:13;;;;;;;19.70;11.65;;;;;;;;;;5022960;28;20111;-78
2022/03/22 02:12:38;;;;;;;18.38;12.13;;;;;;;;;;5030724;28;20040;-79
2022/03/22 02:15:05;;;;;;;20.65;13.27;;;;;;;;;;5048103;28;20045;-79
2022/03/22 02:17:30;;;;;;;18.38;11.93;;;;;;;;;;5033317;28;20049;-79
2022/03/22 02:19:56;;;;;;;19.73;12.57;;;;;;;;;;5032597;28;20102;-78
2022/03/22 02:22:40;;;;;;;19.48;11.68;;;;;;;;;;5031688;28;20136;-79
2022/03/22 02:25:15;;;;;;;21.98;12.57;;;;;;;;;;5034475;28;20052;-79
2022/03/22 02:27:43;;;;;;;21.52;13.00;;;;;;;;;;5021493;28;20059;-78
2022/03/22 02:30:10;;;;;;;22.02;12.57;;;;;;;;;;5038964;28;20037;-79
2022/03/22 02:32:35;;;;;;;20.73;12.77;;;;;;;;;;5031792;28;20167;-79
2022/03/22 02:35:00;;;;;;;20.33;13.20;;;;;;;;;;5033421;28;20041;-79
2022/03/22 02:37:26;;;;;;;18.08;11.75;;;;;;;;;;5030223;28;20041;-79
2022/03/22 02:39:51;;;;;;;19.08;12.05;;;;;;;;;;5041678;28;20209;-79
2022/03/22 02:42:16;;;;;;;20.92;13.85;;;;;;;;;;5029248;28;20082;-80
2022/03/22 02:44:41;;;;;;;19.98;12.93;;;;;;;;;;5028805;28;20044;-79
2022/03/22 02:47:07;;;;;;;20.05;12.38;;;;;;;;;;5029846;28;20029;-80
2022/03/22 02:49:34;;;;;;;19.73;12.40;;;;;;;;;;5029591;28;20037;-81
2022/03/22 02:51:59;;;;;;;18.42;12.70;;;;;;;;;;5029978;28;20073;-80
2022/03/22 02:54:25;;;;;;;22.40;12.65;;;;;;;;;;5032089;28;20047;-79
2022/03/22 02:56:50;;;;;;;20.50;12.73;;;;;;;;;;5040842;28;20451;-79
2022/03/22 02:59:15;;;;;;;20.02;12.23;;;;;;;;;;5046528;28;20059;-78
2022/03/22 03:01:41;;;;;;;20.45;13.02;;;;;;;;;;5042539;28;20493;-80
2022/03/22 03:04:06;;;;;;;23.25;12.88;;;;;;;;;;5030832;28;20041;-79
2022/03/22 03:06:32;;;;;;;20.63;11.70;;;;;;;;;;5029062;28;20142;-81
2022/03/22 03:08:59;;;;;;;21.02;12.75;;;;;;;;;;5028799;28;20033;-79
2022/03/22 03:11:24;;;;;;;21.00;12.18;;;;;;;;;;5027070;28;20044;-80
2022/03/22 03:16:34;;;;;;;19.20;11.70;;;;;;;;;;5039215;28;20497;-79
2022/03/22 03:19:02;;;;;;;34.28;12.73;;;;;;;;;;5027087;28;20124;-80
2022/03/22 03:21:28;;;;;;;19.67;12.73;;;;;;;;;;5028190;28;20040;-80
2022/03/22 03:23:53;;;;;;;20.00;11.50;;;;;;;;;;5029740;28;20569;-80
2022/03/22 03:26:18;;;;;;;20.25;12.27;;;;;;;;;;5029754;28;20123;-80
2022/03/22 03:28:44;;;;;;;22.52;12.48;;;;;;;;;;5039886;28;20064;-80
2022/03/22 03:31:09;;;;;;;19.65;11.75;;;;;;;;;;5025846;28;20083;-80
2022/03/22 03:33:34;;;;;;;20.02;13.13;;;;;;;;;;5028290;28;20075;-80
2022/03/22 03:36:00;;;;;;;21.48;11.82;;;;;;;;;;5024799;28;20043;-79
2022/03/22 03:38:26;;;;;;;22.98;12.45;;;;;;;;;;5029021;28;20116;-80
2022/03/22 03:43:35;;;;;;;20.60;12.13;;;;;;;;;;5041274;28;20044;-79
2022/03/22 03:48:44;;;;;;;21.20;12.13;;;;;;;;;;5034700;28;20083;-79
2022/03/22 03:51:09;;;;;;;20.48;12.68;;;;;;;;;;5027807;28;20036;-80
2022/03/22 03:53:35;;;;;;;22.02;12.52;;;;;;;;;;5030883;28;20720;-80
2022/03/22 03:56:00;;;;;;;21.00;12.82;;;;;;;;;;5039848;28;20044;-80
2022/03/22 03:58:25;;;;;;;18.25;12.25;;;;;;;;;;5030831;28;20033;-80
2022/03/22 04:00:50;;;;;;;20.33;12.13;;;;;;;;;;5046389;28;20491;-80
2022/03/22 04:03:16;;;;;;;20.52;11.85;;;;;;;;;;5043404;28;20093;-79
2022/03/22 04:05:41;;;;;;;20.83;12.85;;;;;;;;;;5028610;28;20064;-80
2022/03/22 04:08:06;;;;;;;19.42;12.27;;;;;;;;;;5042612;28;20039;-79
2022/03/22 04:10:34;;;;;;;20.70;12.82;;;;;;;;;;5024495;28;20028;-79
2022/03/22 04:13:00;;;;;;;22.13;12.23;;;;;;;;;;5026686;28;20111;-80
2022/03/22 04:15:25;;;;;;;21.15;12.82;;;;;;;;;;5041950;28;20484;-79
2022/03/22 04:17:51;;;;;;;17.90;12.20;;;;;;;;;;5043984;28;20060;-79
2022/03/22 04:20:17;;;;;;;20.33;12.32;;;;;;;;;;5028409;28;20452;-79
2022/03/22 04:22:43;;;;;;;24.10;11.98;;;;;;;;;;5025833;28;20056;-80
2022/03/22 04:25:08;;;;;;;19.95;12.50;;;;;;;;;;5040904;28;20567;-79
2022/03/22 04:33:01;;;;;;;20.13;12.25;;;;;;;;;;5043678;28;20040;-79
2022/03/22 04:35:28;;;;;;;26.92;13.10;;;;;;;;;;5027854;28;20473;-79
2022/03/22 04:37:57;;;;;;;20.58;12.10;;;;;;;;;;5040035;28;20479;-79
2022/03/22 04:40:22;;;;;;;20.48;13.00;;;;;;;;;;5027863;28;20041;-79
2022/03/22 04:42:48;;;;;;;19.55;12.02;;;;;;;;;;5028833;28;20047;-78
2022/03/22 04:45:13;;;;;;;19.15;11.95;;;;;;;;;;5025212;28;20056;-78
2022/03/22 04:47:39;;;;;;;21.30;12.38;;;;;;;;;;5027459;28;20045;-79
2022/03/22 04:50:08;;;;;;;18.88;12.48;;;;;;;;;;5029429;28;20389;-79
2022/03/22 04:58:02;;;;;;;21.70;12.00;;;;;;;;;;5038571;28;20044;-80
2022/03/22 05:00:28;;;;;;;24.00;13.50;;;;;;;;;;5040062;28;20033;-77
2022/03/22 05:02:53;;;;;;;24.20;12.85;;;;;;;;;;5029518;28;20039;-81
2022/03/22 05:06:25;;;;;;;22.55;11.90;;;;;;;;;;5027711;28;20106;-81
2022/03/22 05:08:04;;;;;;;20.85;12.95;;;;;;;;;;5039699;28;20032;-82
2022/03/22 05:10:32;;;;;;;24.02;13.27;;;;;;;;;;5026259;28;20048;-82
2022/03/22 05:12:57;;;;;;;;;;;;;;;;;;5020958;28;20517;-82
2022/03/22 05:15:23;;;;;;;22.63;12.68;;;;;;;;;;5038817;28;19959;-81
2022/03/22 05:17:48;;;;;;;21.35;12.98;;;;;;;;;;5029393;28;20056;-81
2022/03/22 05:20:15;;;;;;;24.40;13.45;;;;;;;;;;5047107;28;20037;-80
2022/03/22 05:22:42;;;;;;;27.75;14.18;;;;;;;;;;5022755;28;20044;-81
2022/03/22 05:25:09;;;;;;;20.80;13.85;;;;;;;;;;5030046;28;20051;-82
2022/03/22 05:27:36;;;;;;;22.10;13.95;;;;;;;;;;5028643;28;20041;-82
2022/03/22 05:30:05;;;;;;;20.15;13.15;;;;;;;;;;5043982;28;20037;-83
2022/03/22 05:32:30;;;;;;;19.88;12.27;;;;;;;;;;5023209;28;20480;-81
2022/03/22 05:34:55;;;;;;;22.30;12.13;;;;;;;;;;5045990;28;20098;-81
2022/03/22 05:37:22;;;;;;;23.38;13.60;;;;;;;;;;5044692;28;20055;-81
2022/03/22 05:39:47;;;;;;;22.20;13.25;;;;;;;;;;5032532;28;20578;-81
2022/03/22 05:42:13;;;;;;;23.25;13.90;;;;;;;;;;5036764;28;20086;-81
2022/03/22 05:44:39;;;;;;;19.38;13.02;;;;;;;;;;5029622;28;20977;-81
2022/03/22 05:47:05;;;;;;;22.42;13.27;;;;;;;;;;5032236;28;20040;-81
2022/03/22 05:49:30;;;;;;;18.92;12.55;;;;;;;;;;5033031;28;20504;-81
2022/03/22 05:51:57;;;;;;;21.00;13.63;;;;;;;;;;5044235;28;20040;-82
2022/03/22 05:54:22;;;;;;;22.13;13.83;;;;;;;;;;5031498;28;20041;-81
2022/03/22 05:56:48;;;;;;;22.92;13.52;;;;;;;;;;5032074;28;20053;-81
2022/03/22 05:59:13;;;;;;;21.45;13.55;;;;;;;;;;5031931;28;20090;-83
2022/03/22 06:01:39;;;;;;;20.40;12.68;;;;;;;;;;5032315;28;20042;-82
2022/03/22 06:04:05;;;;;;;20.92;12.57;;;;;;;;;;5031718;28;20812;-81
2022/03/22 06:06:30;;;;;;;20.15;12.73;;;;;;;;;;5029971;28;20047;-82
2022/03/22 06:08:56;;;;;;;22.88;12.93;;;;;;;;;;5034104;28;20051;-81
2022/03/22 06:11:21;;;;;;;25.52;13.27;;;;;;;;;;5029089;28;20057;-83
2022/03/22 06:13:47;;;;;;;23.08;13.50;;;;;;;;;;5030090;28;20202;-81
2022/03/22 06:16:12;;;;;;;21.35;13.27;;;;;;;;;;5046769;28;20611;-81
2022/03/22 06:18:37;;;;;;;23.50;13.60;;;;;;;;;;5027196;28;20050;-81
2022/03/22 06:21:03;;;;;;;21.23;12.50;;;;;;;;;;5029355;28;20041;-81
2022/03/22 06:23:28;;;;;;;20.20;13.05;;;;;;;;;;5031465;28;20656;-82
2022/03/22 06:25:54;;;;;;;22.98;13.25;;;;;;;;;;5030631;28;20431;-82
2022/03/22 06:28:19;;;;;;;26.17;15.30;;;;;;;;;;5033029;28;20041;-82
2022/03/22 06:30:44;;;;;;;25.60;14.13;;;;;;;;;;5041689;28;20500;-82
2022/03/22 06:33:13;;;;;;;21.58;13.15;;;;;;;;;;5030077;28;20400;-80
2022/03/22 06:35:39;;;;;;;22.40;13.65;;;;;;;;;;5028584;28;20102;-80
2022/03/22 06:38:05;;;;;;;21.17;13.15;;;;;;;;;;5045360;28;20520;-80
2022/03/22 06:40:34;;;;;;;23.73;14.02;;;;;;;;;;5030693;28;20029;-80
2022/03/22 06:43:03;;;;;;;22.90;13.38;;;;;;;;;;5030743;28;20036;-83
2022/03/22 06:45:29;;;;;;;21.27;13.57;;;;;;;;;;5019216;28;20041;-80
2022/03/22 06:47:54;;;;;;;24.08;13.50;;;;;;;;;;5029849;28;20044;-82
2022/03/22 06:50:20;;;;;;;23.00;13.35;;;;;;;;;;5042857;28;20778;-80
2022/03/22 06:52:45;;;;;;;24.00;13.55;;;;;;;;;;5030834;28;20090;-78
2022/03/22 06:55:13;;;;;;;24.77;13.43;;;;;;;;;;5029544;28;20032;-79
2022/03/22 06:57:39;;;;;;;25.08;13.25;;;;;;;;;;5043243;28;20114;-79
2022/03/22 07:00:08;;;;;;;20.75;13.57;;;;;;;;;;5043040;28;20033;-78
2022/03/22 07:02:35;;;;;;;21.40;13.98;;;;;;;;;;5030086;28;20036;-78
2022/03/22 07:05:01;;;;;;;18.95;13.13;;;;;;;;;;5019779;28;20041;-78
2022/03/22 07:07:26;;;;;;;30.60;16.25;;;;;;;;;;5035655;28;20373;-77
2022/03/22 07:09:52;;;;;;;19.90;11.93;;;;;;;;;;5041593;28;20984;-81
2022/03/22 07:12:17;;;;;;;18.63;12.38;;;;;;;;;;5029924;28;20590;-79
2022/03/22 07:14:42;;;;;;;18.98;12.40;;;;;;;;;;5041940;28;20092;-80
2022/03/22 07:17:08;;;;;;;20.63;12.73;;;;;;;;;;5032593;28;20048;-79
2022/03/22 07:19:34;;;;;;;17.80;12.07;;;;;;;;;;5028517;28;20045;-79
2022/03/22 07:22:00;;;;;;;18.20;11.93;;;;;;;;;;5031245;28;20070;-79
2022/03/22 07:24:25;;;;;;;18.85;12.13;;;;;;;;;;5040726;28;20113;-79
2022/03/22 07:26:51;;;;;;;19.38;12.32;;;;;;;;;;5024517;28;20029;-79
2022/03/22 07:29:16;;;;;;;18.52;11.98;;;;;;;;;;5039998;28;20041;-79
2022/03/22 07:31:41;;;;;;;20.92;12.57;;;;;;;;;;5027000;28;20059;-78
2022/03/22 07:34:12;;;;;;;16.98;11.65;;;;;;;;;;5027786;28;20036;-80
2022/03/22 07:36:39;;;;;;;18.52;11.88;;;;;;;;;;5026151;28;20033;-80
2022/03/22 07:39:06;;;;;;;20.53;11.90;;;;;;;;;;5025925;28;20037;-78
2022/03/22 07:41:32;;;;;;;17.20;12.18;;;;;;;;;;5040176;28;20310;-81
2022/03/22 07:43:57;;;;;;;19.08;12.15;;;;;;;;;;5027076;28;20041;-81
2022/03/22 07:46:25;;;;;;;17.73;11.38;;;;;;;;;;5026300;28;20042;-79
2022/03/22 07:48:51;;;;;;;18.67;11.38;;;;;;;;;;5007482;28;20529;-79
2022/03/22 07:54:02;;;;;;;18.38;11.93;;;;;;;;;;5040649;28;20456;-79
2022/03/22 07:56:27;;;;;;;19.95;12.68;;;;;;;;;;5021999;28;20395;-79
2022/03/22 07:58:52;;;;;;;18.58;11.75;;;;;;;;;;5029990;28;20037;-79
2022/03/22 08:01:18;;;;;;;17.58;12.60;;;;;;;;;;5030312;28;20048;-79
2022/03/22 08:03:43;;;;;;;19.52;12.00;;;;;;;;;;5042756;28;20097;-79
2022/03/22 08:06:08;;;;;;;19.02;11.90;;;;;;;;;;5038896;28;20045;-80
2022/03/22 08:08:34;;;;;;;19.30;11.98;;;;;;;;;;5037872;28;20412;-79
2022/03/22 08:11:01;;;;;;;16.45;12.05;;;;;;;;;;5041523;28;20036;-79
2022/03/22 08:13:27;;;;;;;18.05;12.00;;;;;;;;;;5039956;28;20037;-79
2022/03/22 08:15:52;;;;;;;19.13;11.80;;;;;;;;;;5027997;28;20040;-79
2022/03/22 08:18:17;;;;;;;18.35;11.52;;;;;;;;;;5041044;28;20040;-79
2022/03/22 08:20:43;;;;;;;17.00;11.88;;;;;;;;;;5018693;28;20060;-79
2022/03/22 08:23:09;;;;;;;19.27;11.73;;;;;;;;;;5036390;28;20571;-81
2022/03/22 08:25:36;;;;;;;19.33;11.43;;;;;;;;;;5024056;28;20049;-79
2022/03/22 08:28:06;;;;;;;20.05;11.80;;;;;;;;;;5041672;28;20045;-80
2022/03/22 08:30:33;;;;;;;21.77;12.00;;;;;;;;;;5030223;28;20447;-79
2022/03/22 08:32:59;;;;;;;15.07;11.50;;;;;;;;;;5044883;28;20124;-77
2022/03/22 08:35:26;;;;;;;16.73;11.35;;;;;;;;;;5042834;28;20063;-78
2022/03/22 08:37:53;;;;;;;21.17;12.07;;;;;;;;;;5041951;28;20508;-79
2022/03/22 08:40:18;;;;;;;17.00;11.48;;;;;;;;;;5025082;28;20492;-79
2022/03/22 08:42:45;;;;;;;19.13;12.02;;;;;;;;;;5028721;28;20029;-80
2022/03/22 08:45:16;;;;;;;17.23;11.88;;;;;;;;;;5036816;28;20180;-79
2022/03/22 08:47:43;;;;;;;17.60;11.40;;;;;;;;;;5045984;28;20135;-80
2022/03/22 08:50:10;;;;;;;15.15;11.35;;;;;;;;;;5021365;28;20036;-79
2022/03/22 08:52:37;;;;;;;16.25;11.63;;;;;;;;;;5027405;28;20072;-81
2022/03/22 08:55:04;;;;;;;16.73;10.85;;;;;;;;;;5024382;28;20033;-80
2022/03/22 08:57:30;;;;;;;15.73;11.05;;;;;;;;;;5030781;28;20051;-79
2022/03/22 08:59:55;;;;;;;18.27;11.27;;;;;;;;;;5041693;28;20054;-80
2022/03/22 09:02:20;;;;;;;13.38;10.20;;;;;;;;;;5046200;28;20056;-78
2022/03/22 09:07:30;;;;;;;15.85;10.60;;;;;;;;;;5043521;28;20080;-79
2022/03/22 09:09:56;;;;;;;16.45;10.43;;;;;;;;;;5040272;28;20045;-80
2022/03/22 09:12:21;;;;;;;15.32;10.02;;;;;;;;;;5034097;28;20112;-79
2022/03/22 09:14:46;;;;;;;14.15;10.68;;;;;;;;;;5044862;28;20040;-81
2022/03/22 09:17:13;;;;;;;13.93;9.63;;;;;;;;;;5023108;28;20041;-80
2022/03/22 09:19:39;;;;;;;14.65;10.15;;;;;;;;;;5027297;28;20132;-82
2022/03/22 09:22:05;;;;;;;13.13;9.63;;;;;;;;;;5032306;28;20532;-81
2022/03/22 09:24:34;;;;;;;12.68;9.90;;;;;;;;;;5050606;28;20052;-82
2022/03/22 09:27:00;;;;;;;11.68;9.27;;;;;;;;;;5048108;28;20488;-82
2022/03/22 09:29:26;;;;;;;12.43;9.40;;;;;;;;;;5035329;28;20091;-81
2022/03/22 09:31:52;;;;;;;13.45;9.35;;;;;;;;;;5031920;28;20112;-80
2022/03/22 09:34:17;;;;;;;12.90;9.05;;;;;;;;;;5042547;28;20140;-80
2022/03/22 09:36:43;;;;;;;12.10;8.85;;;;;;;;;;5028593;28;20148;-82
2022/03/22 09:39:08;;;;;;;12.15;9.40;;;;;;;;;;5033684;28;20032;-81
2022/03/22 09:41:34;;;;;;;12.95;9.85;;;;;;;;;;5026554;28;20045;-80
2022/03/22 09:44:00;;;;;;;12.10;9.10;;;;;;;;;;5041790;28;20039;-80
2022/03/22 09:46:25;;;;;;;11.98;8.95;;;;;;;;;;5030252;28;20179;-79
2022/03/22 09:48:50;;;;;;;12.35;8.98;;;;;;;;;;5041909;28;20041;-80
2022/03/22 09:54:23;;;;;;;14.55;9.48;;;;;;;;;;5019674;28;20044;-80
2022/03/22 09:56:49;;;;;;;15.10;9.32;;;;;;;;;;5044448;28;20045;-80
2022/03/22 09:59:14;;;;;;;14.48;9.70;;;;;;;;;;5033567;28;20033;-80
2022/03/22 10:01:40;;;;;;;13.63;9.77;;;;;;;;;;5028983;28;20444;-80
2022/03/22 10:04:07;;;;;;;13.77;9.15;;;;;;;;;;5028142;28;20116;-80
2022/03/22 10:06:33;;;;;;;14.63;10.10;;;;;;;;;;5023864;28;20439;-79
2022/03/22 10:09:00;;;;;;;13.65;9.90;;;;;;;;;;5026273;28;20029;-80
2022/03/22 10:11:39;;;;;;;16.20;10.35;;;;;;;;;;5029123;28;20057;-80
2022/03/22 10:14:05;;;;;;;17.70;10.65;;;;;;;;;;5033403;28;20492;-80
2022/03/22 10:16:31;;;;;;;13.75;10.00;;;;;;;;;;5042854;28;20128;-78
2022/03/22 10:18:57;;;;;;;14.98;10.25;;;;;;;;;;5030985;28;20166;-80
2022/03/22 10:21:22;;;;;;;13.02;9.73;;;;;;;;;;5045698;28;20033;-79
2022/03/22 10:23:55;;;;;;;14.75;10.45;;;;;;;;;;5026039;28;20069;-79
2022/03/22 10:26:36;;;;;;;13.98;9.90;;;;;;;;;;5029027;28;20041;-78
2022/03/22 10:29:01;;;;;;;12.80;9.75;;;;;;;;;;5049092;28;20120;-79
2022/03/22 10:31:34;;;;;;;14.63;9.98;;;;;;;;;;5043319;28;20107;-79
2022/03/22 10:34:00;;;;;;;16.38;10.60;;;;;;;;;;5028427;28;20052;-80
2022/03/22 10:36:26;;;;;;;13.00;9.88;;;;;;;;;;5032834;28;20037;-80
2022/03/22 10:38:57;;;;;;;12.75;9.48;;;;;;;;;;5043394;28;20530;-79
2022/03/22 10:41:30;;;;;;;12.75;10.05;;;;;;;;;;5042165;28;20037;-80
2022/03/22 10:44:10;;;;;;;13.13;9.57;;;;;;;;;;5027144;28;20029;-80
2022/03/22 10:46:37;;;;;;;14.00;8.85;;;;;;;;;;5032212;28;20033;-79
2022/03/22 10:49:09;;;;;;;13.55;9.20;;;;;;;;;;5041753;28;20047;-80
2022/03/22 10:51:39;;;;;;;12.35;8.98;;;;;;;;;;5025959;28;20047;-81
2022/03/22 10:54:04;;;;;;;12.20;8.80;;;;;;;;;;5020291;28;20045;-81
2022/03/22 10:56:30;;;;;;;10.82;8.13;;;;;;;;;;5032220;28;20033;-81
2022/03/22 10:58:57;;;;;;;10.05;8.10;;;;;;;;;;5029810;28;20122;-82
2022/03/22 11:01:23;;;;;;;13.32;8.70;;;;;;;;;;5024424;28;20044;-82
2022/03/22 11:03:49;;;;;;;12.10;7.75;;;;;;;;;;5022750;28;20046;-80
2022/03/22 11:06:16;;;;;;;10.65;7.60;;;;;;;;;;5031535;28;20479;-79
2022/03/22 11:08:42;;;;;;;12.05;7.97;;;;;;;;;;5028103;28;20056;-81
2022/03/22 11:11:07;;;;;;;9.32;8.02;;;;;;;;;;5025407;28;20505;-81
2022/03/22 11:13:33;;;;;;;11.45;8.23;;;;;;;;;;5028628;28;20049;-80
2022/03/22 11:15:59;;;;;;;8.57;7.30;;;;;;;;;;5026341;28;20040;-80
2022/03/22 11:18:27;;;;;;;10.93;7.32;;;;;;;;;;5047308;28;20412;-80
2022/03/22 11:20:55;;;;;;;12.63;7.70;;;;;;;;;;5025906;28;20399;-81
2022/03/22 11:23:24;;;;;;;12.05;7.63;;;;;;;;;;5044504;28;20488;-81
2022/03/22 11:25:50;;;;;;;9.70;7.22;;;;;;;;;;5017268;28;20042;-80
2022/03/22 11:28:20;;;;;;;12.68;6.85;;;;;;;;;;5027615;28;20120;-81
2022/03/22 11:30:47;;;;;;;11.90;6.78;;;;;;;;;;5015751;28;20149;-81
2022/03/22 11:36:00;;;;;;;9.77;7.50;;;;;;;;;;5042084;28;20048;-80
2022/03/22 11:38:44;;;;;;;10.88;6.78;;;;;;;;;;5021224;28;20042;-79
2022/03/22 11:44:14;;;;;;;9.77;6.93;;;;;;;;;;5029094;28;20047;-80
2022/03/22 11:46:41;;;;;;;7.65;5.80;;;;;;;;;;5032586;28;20597;-80
2022/03/22 11:49:17;;;;;;;8.02;6.03;;;;;;;;;;5038068;28;20404;-80
2022/03/22 11:51:49;;;;;;;8.55;6.22;;;;;;;;;;5028647;28;20059;-79
2022/03/22 11:54:14;;;;;;;8.32;6.03;;;;;;;;;;5043937;28;20037;-81
2022/03/22 11:56:47;;;;;;;10.32;6.22;;;;;;;;;;5043639;28;20092;-78
2022/03/22 11:59:17;;;;;;;8.30;6.60;;;;;;;;;;5040845;28;20395;-79
2022/03/22 12:02:03;;;;;;;8.05;6.30;;;;;;;;;;5041009;28;20052;-82
2022/03/22 12:04:38;;;;;;;9.80;6.78;;;;;;;;;;5044483;28;20037;-82
2022/03/22 12:07:04;;;;;;;11.05;6.80;;;;;;;;;;5004545;28;20045;-82
2022/03/22 12:09:29;;;;;;;8.27;6.70;;;;;;;;;;5032425;28;20048;-84
2022/03/22 12:11:56;;;;;;;10.23;7.18;;;;;;;;;;5022144;28;20492;-83
2022/03/22 12:14:30;;;;;;;8.73;6.70;;;;;;;;;;5028309;28;20051;-82
2022/03/22 12:16:56;;;;;;;10.68;7.10;;;;;;;;;;5041901;28;20052;-82
2022/03/22 12:19:30;;;;;;;10.67;7.23;;;;;;;;;;5028798;28;20182;-83
2022/03/22 12:21:56;;;;;;;11.82;7.80;;;;;;;;;;5044322;28;20048;-84
2022/03/22 12:24:22;;;;;;;11.50;7.28;;;;;;;;;;5035875;28;20053;-84
2022/03/22 12:26:49;;;;;;;11.73;7.38;;;;;;;;;;5019925;28;20081;-83
2022/03/22 12:29:14;;;;;;;10.52;7.50;;;;;;;;;;5023457;28;20382;-84
2022/03/22 12:31:53;;;;;;;11.23;7.32;;;;;;;;;;5047390;28;20040;-82
2022/03/22 12:34:19;;;;;;;10.90;8.00;;;;;;;;;;5022425;28;20064;-81
2022/03/22 12:36:45;;;;;;;8.88;7.40;;;;;;;;;;5040954;28;20035;-80
2022/03/22 12:39:11;;;;;;;13.13;7.43;;;;;;;;;;5021751;28;20484;-84
2022/03/22 12:41:37;;;;;;;9.73;7.05;;;;;;;;;;5039901;28;20083;-82
2022/03/22 12:44:23;;;;;;;10.45;7.35;;;;;;;;;;5036066;28;20037;-82
2022/03/22 12:46:48;;;;;;;10.57;7.55;;;;;;;;;;5026336;28;20044;-81
2022/03/22 12:49:14;;;;;;;10.40;6.82;;;;;;;;;;5011990;28;20046;-83
2022/03/22 12:51:40;;;;;;;13.73;7.22;;;;;;;;;;5027136;28;20033;-82
2022/03/22 12:54:08;;;;;;;10.55;7.40;;;;;;;;;;5009316;28;20430;-82
2022/03/22 12:56:33;;;;;;;12.40;7.45;;;;;;;;;;5010548;28;20044;-83
2022/03/22 12:59:00;;;;;;;9.27;6.45;;;;;;;;;;5010039;28;20033;-83
2022/03/22 13:01:25;;;;;;;11.82;7.07;;;;;;;;;;5009596;28;20068;-84
2022/03/22 13:03:50;;;;;;;10.45;7.32;;;;;;;;;;5011486;28;20067;-83
2022/03/22 13:06:17;;;;;;;11.57;7.38;;;;;;;;;;5012337;28;20107;-84
2022/03/22 13:11:26;;;;;;;14.40;7.32;;;;;;;;;;5027366;28;20127;-84
2022/03/22 13:16:36;;;;;;;12.38;6.70;;;;;;;;;;5026810;28;20048;-84
2022/03/22 13:19:02;;;;;;;9.38;6.93;;;;;;;;;;5026690;28;21094;-84
2022/03/22 13:21:33;;;;;;;9.00;6.63;;;;;;;;;;5006890;28;20067;-83
2022/03/22 13:24:05;;;;;;;9.98;6.63;;;;;;;;;;5032665;28;20060;-84
2022/03/22 13:26:35;;;;;;;9.88;6.47;;;;;;;;;;5032461;28;20033;-84
2022/03/22 13:29:18;;;;;;;8.38;6.47;;;;;;;;;;5023502;28;20222;-85
2022/03/22 13:31:56;;;;;;;8.57;5.95;;;;;;;;;;5034182;28;20041;-84
2022/03/22 13:34:22;;;;;;;10.43;6.65;;;;;;;;;;5041072;28;20102;-83
2022/03/22 13:36:48;;;;;;;8.93;6.97;;;;;;;;;;5039087;28;20052;-84
2022/03/22 13:39:23;;;;;;;9.98;6.80;;;;;;;;;;5025421;28;20033;-83
2022/03/22 13:41:48;;;;;;;11.07;7.40;;;;;;;;;;5019118;28;20505;-83
2022/03/22 13:44:25;;;;;;;10.27;7.50;;;;;;;;;;5027621;28;20040;-82
2022/03/22 13:46:50;;;;;;;10.82;6.57;;;;;;;;;;5045291;28;20033;-81
2022/03/22 13:49:16;;;;;;;8.68;6.80;;;;;;;;;;5030811;28;20450;-82
2022/03/22 13:51:41;;;;;;;9.85;7.00;;;;;;;;;;5031878;28;20036;-80
2022/03/22 13:54:13;;;;;;;8.90;6.80;;;;;;;;;;5030562;28;20041;-82
2022/03/22 13:56:40;;;;;;;11.05;6.85;;;;;;;;;;5047454;28;20474;-83
2022/03/22 13:59:09;;;;;;;9.20;6.82;;;;;;;;;;5042042;28;20041;-84
2022/03/22 14:01:35;;;;;;;10.85;7.35;;;;;;;;;;5027352;28;20116;-81
2022/03/22 14:04:00;;;;;;;10.80;6.90;;;;;;;;;;5025920;28;20120;-83
2022/03/22 14:06:26;;;;;;;11.02;6.80;;;;;;;;;;5017184;28;20033;-85
2022/03/22 14:08:51;;;;;;;9.73;6.30;;;;;;;;;;5015476;28;20037;-82
2022/03/22 14:11:17;;;;;;;8.40;6.20;;;;;;;;;;5045212;28;20044;-84
2022/03/22 14:13:42;;;;;;;9.15;6.20;;;;;;;;;;5047445;28;20119;-83
2022/03/22 14:16:07;;;;;;;18.45;10.90;;;;;;;;;;5028130;28;20036;-82
2022/03/22 14:18:36;;;;;;;8.40;5.70;;;;;;;;;;5029423;28;20072;-82
2022/03/22 14:21:01;;;;;;;9.10;6.03;;;;;;;;;;5040075;28;20559;-82
2022/03/22 14:23:26;;;;;;;9.35;6.38;;;;;;;;;;5030740;28;20029;-82
2022/03/22 14:25:54;;;;;;;11.00;6.03;;;;;;;;;;5039163;28;20045;-82
2022/03/22 14:28:20;;;;;;;8.82;6.05;;;;;;;;;;5036875;28;20037;-82
2022/03/22 14:30:46;;;;;;;11.35;6.47;;;;;;;;;;5040481;28;20526;-82
2022/03/22 14:33:15;;;;;;;10.57;6.45;;;;;;;;;;5027816;28;20033;-82
2022/03/22 14:35:46;;;;;;;10.57;6.60;;;;;;;;;;5019995;28;20811;-81
2022/03/22 14:38:14;;;;;;;9.73;6.40;;;;;;;;;;5043963;28;20041;-82
2022/03/22 14:40:40;;;;;;;;;;;;;;;;;;5044936;28;20029;-81
2022/03/22 14:43:09;;;;;;;10.18;6.65;;;;;;;;;;5032695;28;19923;-80
2022/03/22 14:45:35;;;;;;;9.90;6.60;;;;;;;;;;5015065;28;20033;-82
2022/03/22 14:48:00;;;;;;;10.93;6.70;;;;;;;;;;5039528;28;21551;-81
2022/03/22 14:50:26;;;;;;;10.65;6.45;;;;;;;;;;5021531;28;20040;-82
2022/03/22 14:55:36;;;;;;;10.57;6.70;;;;;;;;;;5041484;28;20605;-83
2022/03/22 15:00:45;;;;;;;9.98;6.90;;;;;;;;;;5037441;28;20038;-83
2022/03/22 15:03:13;;;;;;;9.35;6.85;;;;;;;;;;5025549;28;20498;-82
2022/03/22 15:05:39;;;;;;;;;;;;;;;;;;5038845;28;20753;-82
2022/03/22 15:08:06;;;;;;;11.15;6.43;;;;;;;;;;5029036;28;19943;-84
2022/03/22 15:10:32;;;;;;;11.90;6.57;;;;;;;;;;5017931;28;20395;-84